Time;durP1;ratioP1;P1;durP2;ratioP2;P2;SDS_P1;SDS_P2;PMS_P1;PMS_P2;Temp;Humidity;BMP_temperature;BMP_pressure;BME280_temperature;BME280_humidity;BME280_pressure;Samples;Min_cycle;Max_cycle;Signal;HPM_P1;HPM_P2
2022/09/03 00:00:10;;;;;;;0.00;0.00;;;18.40;61.80;;;;;;5110898;28;20020;-82
2022/09/03 00:02:45;;;;;;;0.00;0.00;;;18.40;61.80;;;;;;5112277;28;20012;-81
2022/09/03 00:05:42;;;;;;;0.20;0.10;;;18.40;61.80;;;;;;5110432;28;20047;-82
2022/09/03 00:08:53;;;;;;;0.00;0.00;;;18.40;61.80;;;;;;5112178;28;20020;-81
2022/09/03 00:11:31;;;;;;;0.00;0.00;;;18.40;61.80;;;;;;5076669;28;20035;-81
2022/09/03 00:14:03;;;;;;;0.00;0.00;;;18.50;61.80;;;;;;5112034;28;20032;-81
2022/09/03 00:16:40;;;;;;;0.00;0.00;;;18.50;61.80;;;;;;5110806;28;20027;-82
2022/09/03 00:19:06;;;;;;;0.00;0.00;;;18.50;61.90;;;;;;5110216;28;20071;-79
2022/09/03 00:22:01;;;;;;;;;;;18.50;61.80;;;;;;5110901;28;20034;-82
2022/09/03 00:24:32;;;;;;;0.00;0.00;;;18.40;61.80;;;;;;5098208;28;19903;-82
2022/09/03 00:27:04;;;;;;;0.00;0.00;;;18.30;61.70;;;;;;5111961;28;20430;-82
2022/09/03 00:30:00;;;;;;;0.17;0.10;;;18.30;61.70;;;;;;5110437;28;20427;-82
2022/09/03 00:32:47;;;;;;;0.00;0.00;;;18.30;61.80;;;;;;5112018;28;20038;-81
2022/09/03 00:35:19;;;;;;;0.00;0.00;;;18.20;61.70;;;;;;5111698;28;20024;-82
2022/09/03 00:37:45;;;;;;;0.00;0.00;;;18.20;61.70;;;;;;5111754;28;20055;-81
2022/09/03 00:40:41;;;;;;;0.00;0.00;;;18.20;61.70;;;;;;5093293;28;20059;-82
2022/09/03 00:43:20;;;;;;;0.00;0.00;;;18.10;62.20;;;;;;5109727;28;20440;-82
2022/09/03 00:46:06;;;;;;;0.10;0.10;;;18.10;61.70;;;;;;5110270;28;20023;-82
2022/09/03 00:48:57;;;;;;;0.00;0.00;;;18.10;61.80;;;;;;5111516;28;20102;-82
2022/09/03 00:51:24;;;;;;;0.00;0.00;;;18.00;61.80;;;;;;5082656;28;20027;-82
2022/09/03 00:54:25;;;;;;;0.00;0.00;;;18.00;61.80;;;;;;5111280;28;20480;-81
2022/09/03 00:57:26;;;;;;;0.00;0.00;;;18.00;61.80;;;;;;5075299;28;20483;-81
2022/09/03 01:00:14;;;;;;;0.00;0.00;;;18.00;61.80;;;;;;5109334;28;20510;-82
2022/09/03 01:02:45;;;;;;;0.00;0.00;;;18.00;61.80;;;;;;5110235;28;20038;-81
2022/09/03 01:05:29;;;;;;;0.00;0.00;;;18.00;61.80;;;;;;5109886;28;20027;-82
2022/09/03 01:08:07;;;;;;;0.00;0.00;;;17.90;61.80;;;;;;5110099;28;20327;-82
2022/09/03 01:11:12;;;;;;;0.00;0.00;;;17.90;61.70;;;;;;5110218;28;20039;-82
2022/09/03 01:14:23;;;;;;;0.00;0.00;;;17.90;61.80;;;;;;5092378;28;20623;-82
2022/09/03 01:17:03;;;;;;;0.00;0.00;;;17.80;61.80;;;;;;5102415;28;20105;-82
2022/09/03 01:19:41;;;;;;;0.00;0.00;;;17.80;61.90;;;;;;5115582;28;20078;-82
2022/09/03 01:22:28;;;;;;;0.10;0.00;;;17.80;61.90;;;;;;5116177;28;20081;-82
2022/09/03 01:25:08;;;;;;;0.00;0.00;;;17.80;62.00;;;;;;5115461;28;20027;-82
2022/09/03 01:28:00;;;;;;;0.00;0.00;;;17.80;61.90;;;;;;5114103;28;20084;-82
2022/09/03 01:30:29;;;;;;;0.20;0.20;;;17.80;61.90;;;;;;5113928;28;20019;-83
2022/09/03 01:33:06;;;;;;;0.00;0.00;;;17.70;61.80;;;;;;5097440;28;20410;-83
2022/09/03 01:35:48;;;;;;;0.00;0.00;;;17.70;61.90;;;;;;5113929;28;20024;-83
2022/09/03 01:38:26;;;;;;;0.00;0.00;;;17.70;62.00;;;;;;5113962;28;20080;-82
2022/09/03 01:42:12;;;;;;;0.00;0.00;;;17.70;62.00;;;;;;5113714;28;20114;-82
2022/09/03 01:43:50;;;;;;;0.00;0.00;;;17.60;62.00;;;;;;5114906;28;20047;-82
2022/09/03 01:46:25;;;;;;;0.00;0.00;;;17.60;62.00;;;;;;5115052;28;20027;-82
2022/09/03 01:49:04;;;;;;;0.00;0.00;;;17.50;61.90;;;;;;5114884;28;20033;-82
2022/09/03 01:51:31;;;;;;;0.00;0.00;;;17.50;61.90;;;;;;5113517;28;20111;-82
2022/09/03 01:54:32;;;;;;;0.00;0.00;;;17.40;61.90;;;;;;5113303;28;20103;-81
2022/09/03 01:57:28;;;;;;;0.00;0.00;;;17.40;62.00;;;;;;5113555;28;20028;-81
2022/09/03 02:00:14;;;;;;;0.00;0.00;;;17.40;62.10;;;;;;5114761;28;20102;-82
2022/09/03 02:02:45;;;;;;;0.00;0.00;;;17.30;62.20;;;;;;5113477;28;20497;-82
2022/09/03 02:05:13;;;;;;;0.00;0.00;;;17.30;62.20;;;;;;5114706;28;20043;-82
2022/09/03 02:08:00;;;;;;;0.00;0.00;;;17.20;62.30;;;;;;5113328;28;20023;-80
2022/09/03 02:10:48;;;;;;;0.00;0.00;;;17.20;62.40;;;;;;5114628;28;20031;-80
2022/09/03 02:13:30;;;;;;;0.00;0.00;;;17.00;62.40;;;;;;5112993;28;20314;-80
2022/09/03 02:15:59;;;;;;;0.00;0.00;;;16.80;62.60;;;;;;5114527;28;20024;-80
2022/09/03 02:18:32;;;;;;;0.00;0.00;;;16.70;62.70;;;;;;5114593;28;20027;-80
2022/09/03 02:20:59;;;;;;;0.00;0.00;;;16.60;62.70;;;;;;5114326;28;20032;-80
2022/09/03 02:23:26;;;;;;;0.00;0.00;;;16.60;62.90;;;;;;5114364;27;20073;-80
2022/09/03 02:25:56;;;;;;;0.00;0.00;;;16.50;63.00;;;;;;5112930;28;20035;-80
2022/09/03 02:28:24;;;;;;;0.00;0.00;;;16.40;63.10;;;;;;5112778;28;20067;-80
2022/09/03 02:30:50;;;;;;;0.00;0.00;;;16.40;63.10;;;;;;5113113;28;20831;-80
2022/09/03 02:33:16;;;;;;;0.00;0.00;;;16.50;63.10;;;;;;5112958;28;20035;-81
2022/09/03 02:35:42;;;;;;;0.00;0.00;;;16.40;62.90;;;;;;5114222;28;20507;-80
2022/09/03 02:38:14;;;;;;;0.00;0.00;;;16.50;62.90;;;;;;5095779;28;20028;-80
2022/09/03 02:40:40;;;;;;;0.00;0.00;;;16.40;62.80;;;;;;5112565;28;20024;-80
2022/09/03 02:43:10;;;;;;;0.00;0.00;;;16.40;62.80;;;;;;5095839;28;20039;-80
2022/09/03 02:45:40;;;;;;;0.00;0.00;;;16.40;62.80;;;;;;5114071;28;20031;-80
2022/09/03 02:48:09;;;;;;;0.00;0.00;;;16.30;62.90;;;;;;5113913;28;20043;-80
2022/09/03 02:50:40;;;;;;;0.00;0.00;;;16.20;63.10;;;;;;5112374;28;20477;-80
2022/09/03 02:53:06;;;;;;;0.00;0.00;;;16.10;63.20;;;;;;5095421;28;20046;-80
2022/09/03 02:55:31;;;;;;;0.00;0.00;;;16.10;63.20;;;;;;5112217;28;20499;-80
2022/09/03 02:57:58;;;;;;;0.00;0.00;;;16.10;63.30;;;;;;5112465;28;20058;-80
2022/09/03 03:00:24;;;;;;;0.00;0.00;;;16.10;63.20;;;;;;5095712;28;20058;-80
2022/09/03 03:02:51;;;;;;;0.00;0.00;;;16.00;63.30;;;;;;5078705;28;20043;-80
2022/09/03 03:05:25;;;;;;;0.00;0.00;;;16.00;63.30;;;;;;5094507;28;20137;-80
2022/09/03 03:07:51;;;;;;;0.00;0.00;;;16.00;63.30;;;;;;5113727;28;20028;-80
2022/09/03 03:10:17;;;;;;;0.00;0.00;;;16.00;63.20;;;;;;5112396;28;20400;-80
2022/09/03 03:12:42;;;;;;;0.00;0.00;;;16.00;63.30;;;;;;5112175;28;20509;-81
2022/09/03 03:15:09;;;;;;;0.00;0.00;;;16.00;63.10;;;;;;5078176;28;20035;-80
2022/09/03 03:17:34;;;;;;;0.00;0.00;;;16.00;63.00;;;;;;5112262;28;20043;-80
2022/09/03 03:20:00;;;;;;;0.00;0.00;;;16.10;63.00;;;;;;5112388;28;20028;-80
2022/09/03 03:22:25;;;;;;;0.00;0.00;;;16.10;63.00;;;;;;5095489;28;20065;-80
2022/09/03 03:24:51;;;;;;;0.00;0.00;;;16.00;63.00;;;;;;5094914;28;20036;-80
2022/09/03 03:27:17;;;;;;;0.00;0.00;;;16.00;63.00;;;;;;5078249;28;20395;-81
2022/09/03 03:29:43;;;;;;;0.00;0.00;;;16.00;63.00;;;;;;5112277;28;20029;-81
2022/09/03 03:32:09;;;;;;;0.00;0.00;;;16.00;63.00;;;;;;5111933;28;20114;-81
2022/09/03 03:34:34;;;;;;;0.00;0.00;;;16.00;63.20;;;;;;5094767;28;20032;-81
2022/09/03 03:37:00;;;;;;;0.00;0.00;;;16.10;63.30;;;;;;5111726;28;20399;-81
2022/09/03 03:39:26;;;;;;;0.00;0.00;;;16.10;63.10;;;;;;5093759;28;20434;-81
2022/09/03 03:41:52;;;;;;;0.00;0.00;;;16.20;63.10;;;;;;5111476;28;20039;-81
2022/09/03 03:44:19;;;;;;;0.00;0.00;;;16.20;62.90;;;;;;5111704;28;20077;-81
2022/09/03 03:46:45;;;;;;;0.00;0.00;;;16.30;62.90;;;;;;5094904;28;20042;-81
2022/09/03 03:49:11;;;;;;;0.00;0.00;;;16.40;62.80;;;;;;5111266;28;20104;-81
2022/09/03 03:51:37;;;;;;;0.00;0.00;;;16.40;62.70;;;;;;5112241;28;20023;-71
2022/09/03 03:54:03;;;;;;;0.00;0.00;;;16.40;62.60;;;;;;5094040;28;20487;-81
2022/09/03 03:56:29;;;;;;;;;;;16.40;62.50;;;;;;5111831;28;20043;-81
2022/09/03 03:58:56;;;;;;;0.00;0.00;;;16.40;62.50;;;;;;5112426;28;19999;-81
2022/09/03 04:01:25;;;;;;;0.00;0.00;;;16.40;62.40;;;;;;5094108;28;20038;-81
2022/09/03 04:03:51;;;;;;;0.00;0.00;;;16.40;62.40;;;;;;5112390;28;20098;-81
2022/09/03 04:06:18;;;;;;;0.00;0.00;;;16.40;62.40;;;;;;5094087;28;20034;-81
2022/09/03 04:08:46;;;;;;;0.00;0.00;;;16.30;62.50;;;;;;5112384;28;20371;-81
2022/09/03 04:11:14;;;;;;;0.00;0.00;;;16.30;62.60;;;;;;5093908;28;20455;-81
2022/09/03 04:13:42;;;;;;;0.00;0.00;;;16.30;62.60;;;;;;5112231;28;20469;-81
2022/09/03 04:16:10;;;;;;;0.00;0.00;;;16.30;62.50;;;;;;5110778;28;20499;-81
2022/09/03 04:18:37;;;;;;;0.00;0.00;;;16.30;62.50;;;;;;5110797;28;20019;-80
2022/09/03 04:21:10;;;;;;;0.00;0.00;;;16.40;62.50;;;;;;5110652;28;20055;-81
2022/09/03 04:23:38;;;;;;;0.00;0.00;;;16.40;62.40;;;;;;5110768;28;20027;-81
2022/09/03 04:26:05;;;;;;;0.00;0.00;;;16.30;62.40;;;;;;5110787;28;20114;-81
2022/09/03 04:28:32;;;;;;;0.00;0.00;;;16.30;62.40;;;;;;5110641;28;20057;-81
2022/09/03 04:31:02;;;;;;;0.00;0.00;;;16.30;62.50;;;;;;5110786;28;20152;-81
2022/09/03 04:33:29;;;;;;;0.00;0.00;;;16.30;63.10;;;;;;5111910;28;20503;-81
2022/09/03 04:36:10;;;;;;;0.00;0.00;;;16.30;62.60;;;;;;5110702;28;20214;-80
2022/09/03 04:38:38;;;;;;;0.00;0.00;;;16.20;62.50;;;;;;5111962;28;20030;-81
2022/09/03 04:41:05;;;;;;;0.00;0.00;;;16.20;62.50;;;;;;5111845;28;20019;-80
2022/09/03 04:43:31;;;;;;;0.00;0.00;;;16.10;62.50;;;;;;5110743;28;20430;-81
2022/09/03 04:45:58;;;;;;;;;;;16.00;62.50;;;;;;5110904;28;20028;-80
2022/09/03 04:48:24;;;;;;;0.00;0.00;;;16.00;62.50;;;;;;5110463;28;19939;-81
2022/09/03 04:50:50;;;;;;;;;;;15.90;62.50;;;;;;5111916;28;20081;-81
2022/09/03 04:53:15;;;;;;;0.00;0.00;;;15.90;62.60;;;;;;5093264;28;20306;-81
2022/09/03 04:55:41;;;;;;;0.00;0.00;;;15.90;62.60;;;;;;5093186;28;20091;-81
2022/09/03 04:58:07;;;;;;;0.00;0.00;;;15.90;62.70;;;;;;5093166;28;20138;-81
2022/09/03 05:00:35;;;;;;;0.00;0.00;;;15.70;62.80;;;;;;5093307;28;20027;-81
2022/09/03 05:03:03;;;;;;;0.00;0.00;;;15.70;63.10;;;;;;5110152;28;20020;-80
2022/09/03 05:05:30;;;;;;;0.00;0.00;;;15.60;63.10;;;;;;5111703;28;20024;-81
2022/09/03 05:08:02;;;;;;;0.00;0.00;;;15.70;63.30;;;;;;5110162;28;20020;-81
2022/09/03 05:10:29;;;;;;;0.00;0.00;;;15.70;63.30;;;;;;5093290;28;20066;-80
2022/09/03 05:13:05;;;;;;;0.00;0.00;;;15.70;63.30;;;;;;5110275;28;20031;-81
2022/09/03 05:15:34;;;;;;;0.00;0.00;;;15.70;63.30;;;;;;5110023;28;20038;-81
2022/09/03 05:18:02;;;;;;;0.00;0.00;;;15.70;63.20;;;;;;5110103;28;20050;-80
2022/09/03 05:20:29;;;;;;;0.00;0.00;;;15.80;63.10;;;;;;5093329;28;20024;-80
2022/09/03 05:22:56;;;;;;;0.00;0.00;;;15.80;63.00;;;;;;5093327;28;20031;-80
2022/09/03 05:25:23;;;;;;;0.00;0.00;;;15.80;62.90;;;;;;5110035;28;20023;-80
2022/09/03 05:27:49;;;;;;;0.00;0.00;;;15.80;62.90;;;;;;5111614;28;20046;-81
2022/09/03 05:30:15;;;;;;;0.00;0.00;;;15.80;62.90;;;;;;5109785;28;20107;-80
2022/09/03 05:32:41;;;;;;;0.00;0.00;;;15.80;63.00;;;;;;5092949;28;20564;-80
2022/09/03 05:35:08;;;;;;;0.00;0.00;;;15.80;63.00;;;;;;5092879;28;20399;-81
2022/09/03 05:37:33;;;;;;;0.00;0.00;;;15.80;63.00;;;;;;5109924;28;20055;-80
2022/09/03 05:39:59;;;;;;;0.00;0.00;;;15.90;63.00;;;;;;5110206;28;20077;-81
2022/09/03 05:42:27;;;;;;;0.00;0.00;;;15.90;63.00;;;;;;5109702;28;20369;-81
2022/09/03 05:44:53;;;;;;;0.00;0.00;;;15.90;63.10;;;;;;5109993;28;20695;-80
2022/09/03 05:47:19;;;;;;;0.00;0.00;;;15.90;63.10;;;;;;5109885;28;20028;-80
2022/09/03 05:49:45;;;;;;;0.00;0.00;;;15.90;63.10;;;;;;5109838;28;20395;-81
2022/09/03 05:52:10;;;;;;;0.00;0.00;;;16.00;63.10;;;;;;5075859;28;20395;-81
2022/09/03 05:54:36;;;;;;;0.00;0.00;;;16.00;63.10;;;;;;5110873;28;20050;-80
2022/09/03 05:57:02;;;;;;;0.00;0.00;;;16.00;63.00;;;;;;5092792;28;20429;-81
2022/09/03 05:59:28;;;;;;;0.00;0.00;;;16.00;63.10;;;;;;5109693;28;20417;-80
2022/09/03 06:01:54;;;;;;;0.00;0.00;;;16.00;63.00;;;;;;5110154;28;20455;-80
2022/09/03 06:04:20;;;;;;;0.00;0.00;;;16.00;63.60;;;;;;5079623;28;20107;-81
2022/09/03 06:06:47;;;;;;;0.00;0.00;;;16.00;63.20;;;;;;5113466;28;20055;-80
2022/09/03 06:09:18;;;;;;;0.00;0.00;;;16.00;63.10;;;;;;5113358;28;20055;-80
2022/09/03 06:11:45;;;;;;;0.00;0.00;;;16.00;63.00;;;;;;5114417;28;20015;-80
2022/09/03 06:14:12;;;;;;;0.00;0.00;;;16.00;63.00;;;;;;5096223;28;20016;-81
2022/09/03 06:16:41;;;;;;;0.00;0.00;;;16.00;63.00;;;;;;5114511;28;20023;-80
2022/09/03 06:19:11;;;;;;;0.00;0.00;;;16.00;63.00;;;;;;5112878;28;20026;-80
2022/09/03 06:21:41;;;;;;;0.00;0.00;;;16.00;63.10;;;;;;5112890;28;20127;-80
2022/09/03 06:24:18;;;;;;;0.70;0.10;;;15.90;63.30;;;;;;5113082;28;20107;-80
2022/09/03 06:26:44;;;;;;;0.00;0.00;;;15.90;63.30;;;;;;5114122;28;20353;-80
2022/09/03 06:29:10;;;;;;;;;;;15.90;63.30;;;;;;5114732;28;20035;-80
2022/09/03 06:31:36;;;;;;;0.00;0.00;;;15.80;63.40;;;;;;5114342;28;19908;-81
2022/09/03 06:34:02;;;;;;;0.00;0.00;;;15.80;63.40;;;;;;5112693;28;20027;-80
2022/09/03 06:36:28;;;;;;;0.00;0.00;;;15.70;63.40;;;;;;5114206;28;20360;-80
2022/09/03 06:38:55;;;;;;;0.00;0.00;;;15.60;63.50;;;;;;5095713;28;20024;-80
2022/09/03 06:41:26;;;;;;;0.00;0.00;;;15.50;63.50;;;;;;5114055;28;20032;-80
2022/09/03 06:44:01;;;;;;;0.00;0.00;;;15.40;63.60;;;;;;5114052;28;20505;-80
2022/09/03 06:46:29;;;;;;;0.00;0.00;;;15.30;63.80;;;;;;5114023;28;20028;-80
2022/09/03 06:48:55;;;;;;;0.00;0.00;;;15.30;63.80;;;;;;5114051;28;20388;-80
2022/09/03 06:51:26;;;;;;;0.00;0.00;;;15.30;63.90;;;;;;5112391;28;20113;-80
2022/09/03 06:53:58;;;;;;;0.00;0.00;;;15.20;63.90;;;;;;5111970;28;20035;-79
2022/09/03 06:56:25;;;;;;;0.00;0.00;;;15.30;64.00;;;;;;5113318;28;20391;-80
2022/09/03 06:58:56;;;;;;;0.00;0.00;;;15.30;64.00;;;;;;5112577;28;20024;-79
2022/09/03 07:01:30;;;;;;;0.00;0.00;;;15.40;63.90;;;;;;5112445;28;20019;-80
2022/09/03 07:04:01;;;;;;;0.00;0.00;;;15.40;63.70;;;;;;5113563;28;20027;-80
2022/09/03 07:06:36;;;;;;;0.00;0.00;;;15.50;63.80;;;;;;5112314;28;20023;-80
2022/09/03 07:09:02;;;;;;;0.00;0.00;;;15.50;63.90;;;;;;5113747;28;20020;-80
2022/09/03 07:11:29;;;;;;;;;;;15.50;63.80;;;;;;5112603;28;20053;-79
2022/09/03 07:13:56;;;;;;;0.00;0.00;;;15.60;63.70;;;;;;5113580;28;19904;-80
2022/09/03 07:16:33;;;;;;;0.00;0.00;;;15.60;64.10;;;;;;5112060;28;20028;-80
2022/09/03 07:19:03;;;;;;;0.00;0.00;;;15.60;63.70;;;;;;5113585;28;20030;-82
2022/09/03 07:21:32;;;;;;;0.00;0.00;;;15.60;63.60;;;;;;5113461;28;20026;-80
2022/09/03 07:23:58;;;;;;;0.00;0.00;;;15.60;63.70;;;;;;5113205;28;20061;-80
2022/09/03 07:26:29;;;;;;;0.00;0.00;;;15.60;63.80;;;;;;5111898;28;20024;-80
2022/09/03 07:28:56;;;;;;;0.00;0.00;;;15.60;63.90;;;;;;5094602;28;20031;-80
2022/09/03 07:31:24;;;;;;;0.00;0.00;;;15.60;63.80;;;;;;5113388;28;20053;-80
2022/09/03 07:34:04;;;;;;;0.00;0.00;;;15.60;63.70;;;;;;5111849;28;20024;-80
2022/09/03 07:36:37;;;;;;;0.00;0.00;;;15.70;63.80;;;;;;5112971;28;20035;-80
2022/09/03 07:39:03;;;;;;;0.00;0.00;;;15.70;63.80;;;;;;5111938;28;20103;-80
2022/09/03 07:41:32;;;;;;;;;;;15.70;63.70;;;;;;5095037;28;20405;-79
2022/09/03 07:44:04;;;;;;;0.00;0.00;;;15.80;63.70;;;;;;5113225;28;20349;-80
2022/09/03 07:46:32;;;;;;;0.00;0.00;;;15.80;63.50;;;;;;5095460;28;20376;-80
2022/09/03 07:49:01;;;;;;;0.00;0.00;;;15.80;63.60;;;;;;5111806;28;20028;-80
2022/09/03 07:51:29;;;;;;;0.00;0.00;;;15.80;63.70;;;;;;5111302;28;20024;-79
2022/09/03 07:53:57;;;;;;;0.00;0.00;;;15.80;63.70;;;;;;5111190;28;20024;-80
2022/09/03 07:56:24;;;;;;;0.00;0.00;;;15.80;63.60;;;;;;5112642;28;20546;-79
2022/09/03 07:58:50;;;;;;;0.00;0.00;;;15.90;63.60;;;;;;5113166;28;20107;-79
2022/09/03 08:01:21;;;;;;;0.00;0.00;;;15.90;63.70;;;;;;5094625;28;20114;-79
2022/09/03 08:03:49;;;;;;;0.05;0.05;;;15.90;63.70;;;;;;5113259;28;20045;-80
2022/09/03 08:06:16;;;;;;;0.00;0.00;;;15.90;63.70;;;;;;5113045;28;20060;-78
2022/09/03 08:08:44;;;;;;;0.00;0.00;;;15.90;63.80;;;;;;5111851;28;20161;-78
2022/09/03 08:11:20;;;;;;;0.00;0.00;;;15.90;63.90;;;;;;5095052;28;20080;-79
2022/09/03 08:14:01;;;;;;;0.00;0.00;;;15.90;63.90;;;;;;5111978;28;20027;-78
2022/09/03 08:16:32;;;;;;;0.00;0.00;;;16.00;63.80;;;;;;5113646;28;20533;-79
2022/09/03 08:18:58;;;;;;;0.00;0.00;;;16.00;63.80;;;;;;5093566;28;20036;-78
2022/09/03 08:21:24;;;;;;;;;;;16.00;64.30;;;;;;5112121;28;20050;-79
2022/09/03 08:23:53;;;;;;;0.00;0.00;;;16.00;63.80;;;;;;5095453;28;19907;-80
2022/09/03 08:26:20;;;;;;;0.00;0.00;;;16.00;63.90;;;;;;5113011;28;20027;-78
2022/09/03 08:28:46;;;;;;;0.00;0.00;;;16.00;63.90;;;;;;5111962;28;20028;-79
2022/09/03 08:31:18;;;;;;;0.00;0.00;;;15.90;63.90;;;;;;5113525;28;20108;-79
2022/09/03 08:33:50;;;;;;;0.00;0.00;;;15.90;64.10;;;;;;5113760;28;20031;-79
2022/09/03 08:36:21;;;;;;;0.00;0.00;;;15.90;64.10;;;;;;5113648;28;20032;-80
2022/09/03 08:38:48;;;;;;;0.00;0.00;;;15.90;64.10;;;;;;5112245;28;20499;-79
2022/09/03 08:41:29;;;;;;;0.00;0.00;;;15.90;64.20;;;;;;5113629;28;20023;-79
2022/09/03 08:44:07;;;;;;;0.00;0.00;;;15.90;64.20;;;;;;5111307;28;20051;-79
2022/09/03 08:46:55;;;;;;;0.00;0.00;;;15.90;64.20;;;;;;5111692;28;20049;-79
2022/09/03 08:49:32;;;;;;;0.00;0.00;;;15.90;64.30;;;;;;5112905;28;20050;-79
2022/09/03 08:52:00;;;;;;;;;;;15.90;64.30;;;;;;5112928;28;20027;-80
2022/09/03 08:54:29;;;;;;;0.00;0.00;;;16.00;64.20;;;;;;5110981;28;19919;-78
2022/09/03 08:56:59;;;;;;;0.00;0.00;;;16.10;64.10;;;;;;5112443;28;20023;-79
2022/09/03 08:59:25;;;;;;;0.00;0.00;;;16.10;64.00;;;;;;5116277;28;20467;-78
2022/09/03 09:02:22;;;;;;;0.00;0.00;;;16.10;64.00;;;;;;5084573;28;20119;-79
2022/09/03 09:05:01;;;;;;;0.00;0.00;;;16.20;64.00;;;;;;5115780;28;20023;-79
2022/09/03 09:07:38;;;;;;;0.00;0.00;;;16.20;64.00;;;;;;5115498;28;20023;-79
2022/09/03 09:10:25;;;;;;;;;;;16.30;63.90;;;;;;5116115;28;20028;-80
2022/09/03 09:13:24;;;;;;;0.00;0.00;;;16.40;63.80;;;;;;5113456;28;19912;-79
2022/09/03 09:16:26;;;;;;;0.00;0.00;;;16.50;63.80;;;;;;5114916;28;20042;-79
2022/09/03 09:18:58;;;;;;;0.00;0.00;;;16.50;63.70;;;;;;5103403;28;20061;-79
2022/09/03 09:21:32;;;;;;;0.00;0.00;;;16.50;63.80;;;;;;5112422;28;20108;-79
2022/09/03 09:24:09;;;;;;;0.00;0.00;;;16.60;63.80;;;;;;5111945;28;20024;-75
2022/09/03 09:26:35;;;;;;;0.00;0.00;;;16.60;63.80;;;;;;5111788;28;20024;-76
2022/09/03 09:29:06;;;;;;;0.00;0.00;;;16.60;63.80;;;;;;5077887;28;20042;-76
2022/09/03 09:31:32;;;;;;;0.00;0.00;;;16.50;63.90;;;;;;5111250;28;20043;-76
2022/09/03 09:34:06;;;;;;;0.00;0.00;;;16.50;64.10;;;;;;5077550;28;20028;-75
2022/09/03 09:36:53;;;;;;;0.00;0.00;;;16.50;64.30;;;;;;5109221;28;20027;-75
2022/09/03 09:39:19;;;;;;;0.00;0.00;;;16.50;64.40;;;;;;5115176;28;20022;-76
2022/09/03 09:42:04;;;;;;;0.00;0.00;;;16.60;64.50;;;;;;5095018;28;20147;-76
2022/09/03 09:44:30;;;;;;;0.00;0.00;;;16.70;64.40;;;;;;5111569;28;20065;-62
2022/09/03 09:47:24;;;;;;;0.00;0.00;;;16.80;64.20;;;;;;5116145;28;20043;-75
2022/09/03 09:49:55;;;;;;;0.00;0.00;;;16.90;64.10;;;;;;5109161;28;20365;-75
2022/09/03 09:52:24;;;;;;;0.00;0.00;;;16.90;64.00;;;;;;5115168;28;20028;-77
2022/09/03 09:54:53;;;;;;;0.00;0.00;;;16.90;64.10;;;;;;5094378;28;20052;-76
2022/09/03 09:57:25;;;;;;;0.00;0.00;;;16.90;64.10;;;;;;5104722;28;20023;-76
2022/09/03 10:00:11;;;;;;;0.00;0.00;;;16.80;64.10;;;;;;5115876;28;20089;-75
2022/09/03 10:02:39;;;;;;;0.00;0.00;;;16.90;64.20;;;;;;5114579;28;20031;-75
2022/09/03 10:05:20;;;;;;;0.00;0.00;;;16.90;64.20;;;;;;5114198;28;20016;-78
2022/09/03 10:07:55;;;;;;;0.00;0.00;;;16.90;64.30;;;;;;5116745;28;20020;-77
2022/09/03 10:10:22;;;;;;;0.00;0.00;;;16.90;64.40;;;;;;5115670;28;20023;-73
2022/09/03 10:13:01;;;;;;;0.00;0.00;;;17.00;64.40;;;;;;5113748;28;20028;-76
2022/09/03 10:15:27;;;;;;;0.00;0.00;;;17.00;64.30;;;;;;5115104;28;20030;-77
2022/09/03 10:18:02;;;;;;;0.00;0.00;;;17.10;64.20;;;;;;5116634;28;20091;-79
2022/09/03 10:20:40;;;;;;;0.00;0.00;;;17.10;64.20;;;;;;5116979;28;20023;-79
2022/09/03 10:23:24;;;;;;;0.00;0.00;;;17.00;64.20;;;;;;5115322;28;20482;-78
2022/09/03 10:26:03;;;;;;;0.00;0.00;;;17.00;64.10;;;;;;5114555;28;20024;-78
2022/09/03 10:28:29;;;;;;;0.00;0.00;;;17.00;64.10;;;;;;5114212;28;20027;-78
2022/09/03 10:30:55;;;;;;;;;;;17.00;64.10;;;;;;5114606;28;20027;-75
2022/09/03 10:33:48;;;;;;;0.00;0.00;;;16.90;64.20;;;;;;5115635;28;20710;-78
2022/09/03 10:36:20;;;;;;;0.00;0.00;;;17.00;64.30;;;;;;5113614;28;20503;-75
2022/09/03 10:39:17;;;;;;;0.00;0.00;;;17.00;64.30;;;;;;5115752;28;20072;-77
2022/09/03 10:41:54;;;;;;;0.00;0.00;;;17.00;64.30;;;;;;5109725;28;20364;-79
2022/09/03 10:45:00;;;;;;;0.00;0.00;;;17.00;64.20;;;;;;5116972;28;20710;-80
2022/09/03 10:48:03;;;;;;;0.00;0.00;;;17.00;64.30;;;;;;5084231;28;20099;-78
2022/09/03 10:50:52;;;;;;;0.00;0.00;;;16.90;64.40;;;;;;5116576;28;20027;-79
2022/09/03 10:53:30;;;;;;;0.00;0.00;;;16.80;64.30;;;;;;5116693;28;20016;-77
2022/09/03 10:56:16;;;;;;;0.00;0.00;;;16.80;64.50;;;;;;5115320;28;20044;-78
2022/09/03 10:59:06;;;;;;;0.00;0.00;;;16.80;64.70;;;;;;5115865;28;20490;-76
2022/09/03 11:01:48;;;;;;;0.00;0.00;;;16.90;64.70;;;;;;5115675;28;20026;-80
2022/09/03 11:04:48;;;;;;;0.00;0.00;;;16.90;64.60;;;;;;5115258;28;20039;-80
2022/09/03 11:07:29;;;;;;;0.00;0.00;;;16.80;64.50;;;;;;5114853;28;20091;-79
2022/09/03 11:10:25;;;;;;;0.00;0.00;;;16.70;64.50;;;;;;5113757;28;20324;-78
2022/09/03 11:12:57;;;;;;;0.00;0.00;;;16.60;64.60;;;;;;5113477;28;20114;-78
2022/09/03 11:15:33;;;;;;;0.00;0.00;;;16.50;64.70;;;;;;5116151;28;20475;-80
2022/09/03 11:18:24;;;;;;;0.00;0.00;;;16.50;64.80;;;;;;5116059;28;20031;-80
2022/09/03 11:20:54;;;;;;;0.00;0.00;;;16.40;64.90;;;;;;5114885;28;20042;-81
2022/09/03 11:23:22;;;;;;;0.00;0.00;;;16.40;64.90;;;;;;5116312;28;20020;-80
2022/09/03 11:25:53;;;;;;;0.00;0.00;;;16.30;65.00;;;;;;5118441;28;20031;-78
2022/09/03 11:28:34;;;;;;;0.00;0.00;;;16.20;64.90;;;;;;5117123;28;20026;-81
2022/09/03 11:31:22;;;;;;;0.00;0.00;;;16.20;65.00;;;;;;5117989;28;20085;-81
2022/09/03 11:34:00;;;;;;;0.00;0.00;;;16.00;65.10;;;;;;5116144;28;20028;-77
2022/09/03 11:36:33;;;;;;;0.00;0.00;;;16.00;65.30;;;;;;5114415;28;20656;-76
2022/09/03 11:38:59;;;;;;;0.00;0.00;;;16.00;65.30;;;;;;5115810;28;20073;-78
2022/09/03 11:41:34;;;;;;;;;;;16.00;65.80;;;;;;5114020;28;20058;-76
2022/09/03 11:44:15;;;;;;;0.00;0.00;;;16.00;65.40;;;;;;5114548;28;19994;-76
2022/09/03 11:46:56;;;;;;;0.00;0.00;;;16.00;65.10;;;;;;5114117;28;20028;-75
2022/09/03 11:49:31;;;;;;;0.00;0.00;;;15.90;65.00;;;;;;5114761;28;20675;-76
2022/09/03 11:52:04;;;;;;;0.00;0.00;;;15.90;65.20;;;;;;5107886;28;20043;-77
2022/09/03 11:54:43;;;;;;;0.00;0.00;;;16.00;65.10;;;;;;5114127;28;20051;-79
2022/09/03 11:57:13;;;;;;;0.00;0.00;;;16.00;64.90;;;;;;5115211;28;20098;-77
2022/09/03 11:59:41;;;;;;;0.00;0.00;;;15.90;64.90;;;;;;5115800;28;20042;-76
2022/09/03 12:02:32;;;;;;;0.00;0.00;;;15.80;65.10;;;;;;5112332;28;20015;-77
2022/09/03 12:05:24;;;;;;;0.00;0.00;;;15.60;65.10;;;;;;5114922;28;20031;-77
2022/09/03 12:08:15;;;;;;;0.00;0.00;;;15.50;65.30;;;;;;5115572;28;20555;-77
2022/09/03 12:11:01;;;;;;;0.00;0.00;;;15.50;65.40;;;;;;5114318;28;20027;-78
2022/09/03 12:14:05;;;;;;;0.00;0.00;;;15.50;65.50;;;;;;5113554;28;20096;-75
2022/09/03 12:16:51;;;;;;;0.00;0.00;;;15.60;65.40;;;;;;5112974;28;20039;-77
2022/09/03 12:19:35;;;;;;;0.00;0.00;;;15.70;65.20;;;;;;5114685;28;20023;-80
2022/09/03 12:22:04;;;;;;;0.00;0.00;;;15.70;65.10;;;;;;5113037;28;20042;-78
2022/09/03 12:24:32;;;;;;;0.10;0.00;;;15.70;65.20;;;;;;5112804;28;20088;-77
2022/09/03 12:26:59;;;;;;;0.00;0.00;;;15.70;65.20;;;;;;5113414;28;20024;-77
2022/09/03 12:29:28;;;;;;;0.00;0.00;;;15.80;65.20;;;;;;5113807;28;20083;-78
2022/09/03 12:31:55;;;;;;;0.00;0.00;;;15.70;65.10;;;;;;5113009;28;20016;-75
2022/09/03 12:34:22;;;;;;;0.00;0.00;;;15.70;65.10;;;;;;5114596;28;20034;-77
2022/09/03 12:36:51;;;;;;;0.00;0.00;;;15.60;65.10;;;;;;5113499;28;20027;-77
2022/09/03 12:39:19;;;;;;;0.00;0.00;;;15.60;65.20;;;;;;5113262;28;20057;-76
2022/09/03 12:42:02;;;;;;;0.00;0.00;;;15.50;65.10;;;;;;5111628;28;20026;-76
2022/09/03 12:44:34;;;;;;;0.00;0.00;;;15.50;65.10;;;;;;5112405;28;20498;-77
2022/09/03 12:47:20;;;;;;;0.00;0.00;;;15.50;65.10;;;;;;5112374;28;20073;-76
2022/09/03 12:49:48;;;;;;;0.00;0.00;;;15.40;65.30;;;;;;5113234;28;20472;-78
2022/09/03 12:52:32;;;;;;;0.00;0.00;;;15.40;65.30;;;;;;5112034;28;20261;-79
2022/09/03 12:55:17;;;;;;;0.00;0.00;;;15.30;65.50;;;;;;5113504;28;20075;-77
2022/09/03 12:57:48;;;;;;;0.00;0.00;;;15.40;65.40;;;;;;5113325;28;20116;-76
2022/09/03 13:00:17;;;;;;;0.00;0.00;;;15.40;65.40;;;;;;5111772;28;20137;-78
2022/09/03 13:02:55;;;;;;;0.00;0.00;;;15.40;65.40;;;;;;5113470;28;20047;-76
2022/09/03 13:05:31;;;;;;;0.00;0.00;;;15.50;65.30;;;;;;5113359;28;20460;-77
2022/09/03 13:08:02;;;;;;;0.00;0.00;;;15.50;65.30;;;;;;5111387;28;20028;-78
2022/09/03 13:10:40;;;;;;;0.00;0.00;;;15.60;65.20;;;;;;5111192;28;20039;-76
2022/09/03 13:13:19;;;;;;;0.00;0.00;;;15.60;65.20;;;;;;5117359;28;20116;-77
2022/09/03 13:16:22;;;;;;;0.00;0.00;;;15.60;65.20;;;;;;5115978;28;20028;-77
2022/09/03 13:18:50;;;;;;;0.00;0.00;;;15.70;65.20;;;;;;5117217;28;20087;-75
2022/09/03 13:21:31;;;;;;;0.00;0.00;;;15.80;65.00;;;;;;5116831;28;20015;-74
2022/09/03 13:23:56;;;;;;;0.00;0.00;;;15.80;64.90;;;;;;5116069;28;20035;-80